sensor_id;sensor_type;location;lat;lon;timestamp;P1;durP1;ratioP1;P2;durP2;ratioP2
47603;SDS011;33326;51.116;6.900;2023-01-16T00:02:07;6.82;;;1.27;;
47603;SDS011;33326;51.116;6.900;2023-01-16T00:07:11;3.00;;;1.13;;
47603;SDS011;33326;51.116;6.900;2023-01-16T00:12:13;2.92;;;1.05;;
47603;SDS011;33326;51.116;6.900;2023-01-16T00:17:15;5.00;;;1.40;;
47603;SDS011;33326;51.116;6.900;2023-01-16T00:22:19;8.60;;;1.60;;
47603;SDS011;33326;51.116;6.900;2023-01-16T00:27:21;4.90;;;1.15;;
47603;SDS011;33326;51.116;6.900;2023-01-16T00:32:23;4.80;;;1.50;;
47603;SDS011;33326;51.116;6.900;2023-01-16T00:37:26;9.27;;;1.55;;
47603;SDS011;33326;51.116;6.900;2023-01-16T00:42:28;8.02;;;1.73;;
47603;SDS011;33326;51.116;6.900;2023-01-16T00:47:30;5.32;;;1.63;;
47603;SDS011;33326;51.116;6.900;2023-01-16T00:52:33;5.35;;;1.73;;
47603;SDS011;33326;51.116;6.900;2023-01-16T00:57:35;4.38;;;1.17;;
47603;SDS011;33326;51.116;6.900;2023-01-16T01:02:37;5.60;;;1.30;;
47603;SDS011;33326;51.116;6.900;2023-01-16T01:07:40;4.57;;;1.13;;
47603;SDS011;33326;51.116;6.900;2023-01-16T01:12:42;4.95;;;1.08;;
47603;SDS011;33326;51.116;6.900;2023-01-16T01:17:44;3.72;;;1.27;;
47603;SDS011;33326;51.116;6.900;2023-01-16T01:22:47;4.38;;;1.27;;
47603;SDS011;33326;51.116;6.900;2023-01-16T01:27:49;6.43;;;1.00;;
47603;SDS011;33326;51.116;6.900;2023-01-16T01:32:51;5.55;;;1.00;;
47603;SDS011;33326;51.116;6.900;2023-01-16T01:37:55;7.00;;;1.73;;
47603;SDS011;33326;51.116;6.900;2023-01-16T01:42:56;6.70;;;1.00;;
47603;SDS011;33326;51.116;6.900;2023-01-16T01:48:01;4.68;;;1.20;;
47603;SDS011;33326;51.116;6.900;2023-01-16T01:53:11;5.13;;;1.17;;
47603;SDS011;33326;51.116;6.900;2023-01-16T01:58:19;4.88;;;1.25;;
47603;SDS011;33326;51.116;6.900;2023-01-16T02:03:27;6.13;;;1.35;;
47603;SDS011;33326;51.116;6.900;2023-01-16T02:08:34;3.05;;;1.00;;
47603;SDS011;33326;51.116;6.900;2023-01-16T02:13:37;1.58;;;1.00;;
47603;SDS011;33326;51.116;6.900;2023-01-16T02:18:39;3.92;;;1.05;;
47603;SDS011;33326;51.116;6.900;2023-01-16T02:24:16;6.15;;;1.05;;
47603;SDS011;33326;51.116;6.900;2023-01-16T02:29:48;3.75;;;0.70;;
47603;SDS011;33326;51.116;6.900;2023-01-16T02:40:39;4.45;;;0.80;;
47603;SDS011;33326;51.116;6.900;2023-01-16T02:45:48;4.25;;;1.00;;
47603;SDS011;33326;51.116;6.900;2023-01-16T02:50:58;1.38;;;0.75;;
47603;SDS011;33326;51.116;6.900;2023-01-16T02:56:07;2.70;;;0.80;;
47603;SDS011;33326;51.116;6.900;2023-01-16T03:01:11;2.08;;;0.50;;
47603;SDS011;33326;51.116;6.900;2023-01-16T03:06:20;2.10;;;0.80;;
47603;SDS011;33326;51.116;6.900;2023-01-16T03:11:31;3.25;;;0.50;;
47603;SDS011;33326;51.116;6.900;2023-01-16T03:16:40;3.20;;;0.50;;
47603;SDS011;33326;51.116;6.900;2023-01-16T03:21:57;2.25;;;0.45;;
47603;SDS011;33326;51.116;6.900;2023-01-16T03:27:11;1.33;;;0.60;;
47603;SDS011;33326;51.116;6.900;2023-01-16T03:32:30;5.05;;;0.70;;
47603;SDS011;33326;51.116;6.900;2023-01-16T03:37:38;0.88;;;0.45;;
47603;SDS011;33326;51.116;6.900;2023-01-16T03:42:43;0.73;;;0.40;;
47603;SDS011;33326;51.116;6.900;2023-01-16T03:47:49;2.33;;;0.60;;
47603;SDS011;33326;51.116;6.900;2023-01-16T03:53:00;2.97;;;0.95;;
47603;SDS011;33326;51.116;6.900;2023-01-16T03:58:07;1.95;;;0.57;;
47603;SDS011;33326;51.116;6.900;2023-01-16T04:03:15;3.30;;;1.02;;
47603;SDS011;33326;51.116;6.900;2023-01-16T04:08:26;4.90;;;1.25;;
47603;SDS011;33326;51.116;6.900;2023-01-16T04:13:33;2.92;;;1.20;;
47603;SDS011;33326;51.116;6.900;2023-01-16T04:18:37;3.70;;;1.50;;
47603;SDS011;33326;51.116;6.900;2023-01-16T04:23:41;6.75;;;1.10;;
47603;SDS011;33326;51.116;6.900;2023-01-16T04:28:43;5.60;;;1.63;;
47603;SDS011;33326;51.116;6.900;2023-01-16T04:33:45;3.83;;;1.02;;
47603;SDS011;33326;51.116;6.900;2023-01-16T04:38:48;2.33;;;0.90;;
47603;SDS011;33326;51.116;6.900;2023-01-16T04:43:50;7.53;;;1.45;;
47603;SDS011;33326;51.116;6.900;2023-01-16T04:48:52;5.68;;;1.35;;
47603;SDS011;33326;51.116;6.900;2023-01-16T04:53:55;3.50;;;0.80;;
47603;SDS011;33326;51.116;6.900;2023-01-16T04:58:57;3.00;;;0.95;;
47603;SDS011;33326;51.116;6.900;2023-01-16T05:03:59;5.68;;;1.00;;
47603;SDS011;33326;51.116;6.900;2023-01-16T05:09:03;7.30;;;1.23;;
47603;SDS011;33326;51.116;6.900;2023-01-16T05:14:06;6.13;;;1.23;;
47603;SDS011;33326;51.116;6.900;2023-01-16T05:19:10;4.00;;;1.10;;
47603;SDS011;33326;51.116;6.900;2023-01-16T05:24:14;4.28;;;0.90;;
47603;SDS011;33326;51.116;6.900;2023-01-16T05:29:16;3.28;;;0.85;;
47603;SDS011;33326;51.116;6.900;2023-01-16T05:34:18;5.40;;;1.27;;
47603;SDS011;33326;51.116;6.900;2023-01-16T05:39:21;3.50;;;1.02;;
47603;SDS011;33326;51.116;6.900;2023-01-16T05:44:23;3.75;;;0.90;;
47603;SDS011;33326;51.116;6.900;2023-01-16T05:49:25;4.70;;;1.20;;
47603;SDS011;33326;51.116;6.900;2023-01-16T05:54:28;4.20;;;0.80;;
47603;SDS011;33326;51.116;6.900;2023-01-16T05:59:30;2.58;;;0.88;;
47603;SDS011;33326;51.116;6.900;2023-01-16T06:04:31;2.45;;;0.63;;
47603;SDS011;33326;51.116;6.900;2023-01-16T06:09:35;1.38;;;0.65;;
47603;SDS011;33326;51.116;6.900;2023-01-16T06:14:36;2.63;;;0.52;;
47603;SDS011;33326;51.116;6.900;2023-01-16T06:19:38;2.67;;;0.95;;
47603;SDS011;33326;51.116;6.900;2023-01-16T06:24:41;1.75;;;0.70;;
47603;SDS011;33326;51.116;6.900;2023-01-16T06:29:43;3.88;;;0.60;;
47603;SDS011;33326;51.116;6.900;2023-01-16T06:34:45;3.05;;;0.85;;
47603;SDS011;33326;51.116;6.900;2023-01-16T06:39:48;2.58;;;1.00;;
47603;SDS011;33326;51.116;6.900;2023-01-16T06:44:50;2.90;;;0.82;;
47603;SDS011;33326;51.116;6.900;2023-01-16T06:49:52;3.25;;;0.90;;
47603;SDS011;33326;51.116;6.900;2023-01-16T06:54:55;1.90;;;0.90;;
47603;SDS011;33326;51.116;6.900;2023-01-16T06:59:57;2.17;;;0.90;;
47603;SDS011;33326;51.116;6.900;2023-01-16T07:04:59;3.42;;;1.08;;
47603;SDS011;33326;51.116;6.900;2023-01-16T07:10:02;4.97;;;1.40;;
47603;SDS011;33326;51.116;6.900;2023-01-16T07:15:05;3.30;;;1.10;;
47603;SDS011;33326;51.116;6.900;2023-01-16T07:20:26;4.53;;;1.73;;
47603;SDS011;33326;51.116;6.900;2023-01-16T07:25:46;3.85;;;1.50;;
47603;SDS011;33326;51.116;6.900;2023-01-16T07:30:50;2.67;;;1.33;;
47603;SDS011;33326;51.116;6.900;2023-01-16T07:35:52;2.15;;;1.20;;
47603;SDS011;33326;51.116;6.900;2023-01-16T07:40:56;2.50;;;1.38;;
47603;SDS011;33326;51.116;6.900;2023-01-16T07:45:57;4.70;;;1.52;;
47603;SDS011;33326;51.116;6.900;2023-01-16T07:50:59;5.97;;;1.90;;
47603;SDS011;33326;51.116;6.900;2023-01-16T07:56:03;4.22;;;1.42;;
47603;SDS011;33326;51.116;6.900;2023-01-16T08:01:05;3.25;;;1.60;;
47603;SDS011;33326;51.116;6.900;2023-01-16T08:06:07;7.15;;;1.63;;
47603;SDS011;33326;51.116;6.900;2023-01-16T08:11:10;3.05;;;1.23;;
47603;SDS011;33326;51.116;6.900;2023-01-16T08:16:30;3.13;;;1.20;;
47603;SDS011;33326;51.116;6.900;2023-01-16T08:21:32;3.75;;;1.10;;
47603;SDS011;33326;51.116;6.900;2023-01-16T08:26:35;7.95;;;1.38;;
47603;SDS011;33326;51.116;6.900;2023-01-16T08:31:37;3.90;;;1.45;;
47603;SDS011;33326;51.116;6.900;2023-01-16T08:36:39;5.22;;;1.27;;
47603;SDS011;33326;51.116;6.900;2023-01-16T08:41:42;5.72;;;1.15;;
47603;SDS011;33326;51.116;6.900;2023-01-16T08:47:03;9.55;;;1.25;;
47603;SDS011;33326;51.116;6.900;2023-01-16T08:52:23;4.55;;;1.02;;
47603;SDS011;33326;51.116;6.900;2023-01-16T08:57:31;4.32;;;0.90;;
47603;SDS011;33326;51.116;6.900;2023-01-16T09:02:33;4.07;;;1.15;;
47603;SDS011;33326;51.116;6.900;2023-01-16T09:07:36;6.30;;;1.05;;
47603;SDS011;33326;51.116;6.900;2023-01-16T09:12:39;4.03;;;1.35;;
47603;SDS011;33326;51.116;6.900;2023-01-16T09:23:01;3.95;;;0.90;;
47603;SDS011;33326;51.116;6.900;2023-01-16T09:28:05;2.42;;;0.80;;
47603;SDS011;33326;51.116;6.900;2023-01-16T09:33:07;3.05;;;1.00;;
47603;SDS011;33326;51.116;6.900;2023-01-16T09:38:09;2.88;;;0.90;;
47603;SDS011;33326;51.116;6.900;2023-01-16T09:43:15;2.35;;;0.93;;
47603;SDS011;33326;51.116;6.900;2023-01-16T09:48:40;4.47;;;1.42;;
47603;SDS011;33326;51.116;6.900;2023-01-16T09:53:50;3.72;;;0.80;;
47603;SDS011;33326;51.116;6.900;2023-01-16T09:59:19;2.85;;;0.80;;
47603;SDS011;33326;51.116;6.900;2023-01-16T10:04:24;3.08;;;0.85;;
47603;SDS011;33326;51.116;6.900;2023-01-16T10:09:30;5.22;;;1.45;;
47603;SDS011;33326;51.116;6.900;2023-01-16T10:14:47;3.67;;;0.80;;
47603;SDS011;33326;51.116;6.900;2023-01-16T10:20:08;1.60;;;0.60;;
47603;SDS011;33326;51.116;6.900;2023-01-16T10:25:34;2.00;;;0.73;;
47603;SDS011;33326;51.116;6.900;2023-01-16T10:30:48;3.42;;;0.75;;
47603;SDS011;33326;51.116;6.900;2023-01-16T10:35:53;2.03;;;0.50;;
47603;SDS011;33326;51.116;6.900;2023-01-16T10:40:58;2.17;;;0.80;;
47603;SDS011;33326;51.116;6.900;2023-01-16T10:46:04;3.00;;;0.77;;
47603;SDS011;33326;51.116;6.900;2023-01-16T10:51:32;2.15;;;0.88;;
47603;SDS011;33326;51.116;6.900;2023-01-16T10:56:34;0.82;;;0.50;;
47603;SDS011;33326;51.116;6.900;2023-01-16T11:01:39;5.68;;;0.65;;
47603;SDS011;33326;51.116;6.900;2023-01-16T11:06:43;0.70;;;0.60;;
47603;SDS011;33326;51.116;6.900;2023-01-16T11:11:47;3.25;;;0.70;;
47603;SDS011;33326;51.116;6.900;2023-01-16T11:17:23;1.00;;;0.70;;
47603;SDS011;33326;51.116;6.900;2023-01-16T11:22:44;2.53;;;0.68;;
47603;SDS011;33326;51.116;6.900;2023-01-16T11:27:51;0.82;;;0.50;;
47603;SDS011;33326;51.116;6.900;2023-01-16T11:32:55;1.08;;;0.50;;
47603;SDS011;33326;51.116;6.900;2023-01-16T11:37:58;2.15;;;0.57;;
47603;SDS011;33326;51.116;6.900;2023-01-16T11:43:06;1.15;;;0.60;;
47603;SDS011;33326;51.116;6.900;2023-01-16T11:53:40;2.45;;;0.68;;
47603;SDS011;33326;51.116;6.900;2023-01-16T11:58:49;3.78;;;0.50;;
47603;SDS011;33326;51.116;6.900;2023-01-16T12:04:09;3.38;;;0.75;;
47603;SDS011;33326;51.116;6.900;2023-01-16T12:09:19;2.88;;;0.60;;
47603;SDS011;33326;51.116;6.900;2023-01-16T12:14:31;3.90;;;1.15;;
47603;SDS011;33326;51.116;6.900;2023-01-16T12:19:46;0.47;;;0.43;;
47603;SDS011;33326;51.116;6.900;2023-01-16T12:25:03;0.50;;;0.50;;
47603;SDS011;33326;51.116;6.900;2023-01-16T12:30:19;1.42;;;0.70;;
47603;SDS011;33326;51.116;6.900;2023-01-16T12:35:33;1.35;;;0.60;;
47603;SDS011;33326;51.116;6.900;2023-01-16T12:46:29;1.83;;;0.65;;
47603;SDS011;33326;51.116;6.900;2023-01-16T12:51:42;0.90;;;0.60;;
47603;SDS011;33326;51.116;6.900;2023-01-16T12:57:06;2.75;;;0.73;;
47603;SDS011;33326;51.116;6.900;2023-01-16T13:02:21;2.43;;;0.60;;
47603;SDS011;33326;51.116;6.900;2023-01-16T13:12:35;2.25;;;0.50;;
47603;SDS011;33326;51.116;6.900;2023-01-16T13:17:58;2.13;;;1.00;;
47603;SDS011;33326;51.116;6.900;2023-01-16T13:23:06;2.60;;;0.90;;
47603;SDS011;33326;51.116;6.900;2023-01-16T13:28:17;1.48;;;0.60;;
47603;SDS011;33326;51.116;6.900;2023-01-16T13:33:26;3.17;;;0.95;;
47603;SDS011;33326;51.116;6.900;2023-01-16T13:38:39;1.48;;;0.63;;
47603;SDS011;33326;51.116;6.900;2023-01-16T13:43:53;1.25;;;0.70;;
47603;SDS011;33326;51.116;6.900;2023-01-16T13:49:18;1.63;;;0.60;;
47603;SDS011;33326;51.116;6.900;2023-01-16T13:54:24;1.20;;;0.60;;
47603;SDS011;33326;51.116;6.900;2023-01-16T13:59:40;3.42;;;0.85;;
47603;SDS011;33326;51.116;6.900;2023-01-16T14:10:39;0.98;;;0.50;;
47603;SDS011;33326;51.116;6.900;2023-01-16T14:15:49;1.95;;;0.70;;
47603;SDS011;33326;51.116;6.900;2023-01-16T14:21:13;1.33;;;0.70;;
47603;SDS011;33326;51.116;6.900;2023-01-16T14:26:23;1.60;;;0.77;;
47603;SDS011;33326;51.116;6.900;2023-01-16T14:31:35;3.35;;;0.77;;
47603;SDS011;33326;51.116;6.900;2023-01-16T14:36:42;2.30;;;0.90;;
47603;SDS011;33326;51.116;6.900;2023-01-16T14:41:48;0.85;;;0.60;;
47603;SDS011;33326;51.116;6.900;2023-01-16T14:47:09;2.25;;;0.90;;
47603;SDS011;33326;51.116;6.900;2023-01-16T14:52:45;2.78;;;0.82;;
47603;SDS011;33326;51.116;6.900;2023-01-16T14:58:08;1.55;;;0.60;;
47603;SDS011;33326;51.116;6.900;2023-01-16T15:03:14;1.95;;;0.80;;
47603;SDS011;33326;51.116;6.900;2023-01-16T15:08:22;1.33;;;0.88;;
47603;SDS011;33326;51.116;6.900;2023-01-16T15:13:29;3.00;;;0.90;;
47603;SDS011;33326;51.116;6.900;2023-01-16T15:18:52;3.63;;;1.10;;
47603;SDS011;33326;51.116;6.900;2023-01-16T15:24:12;4.45;;;1.00;;
47603;SDS011;33326;51.116;6.900;2023-01-16T15:29:37;1.38;;;0.80;;
47603;SDS011;33326;51.116;6.900;2023-01-16T15:35:02;2.47;;;1.05;;
47603;SDS011;33326;51.116;6.900;2023-01-16T15:40:19;2.00;;;0.90;;
47603;SDS011;33326;51.116;6.900;2023-01-16T15:45:25;2.03;;;0.95;;
47603;SDS011;33326;51.116;6.900;2023-01-16T15:50:48;1.90;;;1.25;;
47603;SDS011;33326;51.116;6.900;2023-01-16T15:55:57;2.27;;;1.57;;
47603;SDS011;33326;51.116;6.900;2023-01-16T16:01:05;4.13;;;1.75;;
47603;SDS011;33326;51.116;6.900;2023-01-16T16:06:08;4.32;;;1.58;;
47603;SDS011;33326;51.116;6.900;2023-01-16T16:11:14;3.85;;;2.10;;
47603;SDS011;33326;51.116;6.900;2023-01-16T16:16:38;3.42;;;2.00;;
47603;SDS011;33326;51.116;6.900;2023-01-16T16:21:57;2.67;;;1.98;;
47603;SDS011;33326;51.116;6.900;2023-01-16T16:27:20;4.38;;;1.95;;
47603;SDS011;33326;51.116;6.900;2023-01-16T16:32:24;4.97;;;2.35;;
47603;SDS011;33326;51.116;6.900;2023-01-16T16:37:26;3.53;;;1.70;;
47603;SDS011;33326;51.116;6.900;2023-01-16T16:53:25;4.25;;;2.03;;
47603;SDS011;33326;51.116;6.900;2023-01-16T16:58:27;2.90;;;1.55;;
47603;SDS011;33326;51.116;6.900;2023-01-16T17:03:30;1.83;;;1.10;;
47603;SDS011;33326;51.116;6.900;2023-01-16T17:08:34;1.60;;;1.00;;
47603;SDS011;33326;51.116;6.900;2023-01-16T17:13:36;0.98;;;0.80;;
47603;SDS011;33326;51.116;6.900;2023-01-16T17:18:39;1.60;;;1.00;;
47603;SDS011;33326;51.116;6.900;2023-01-16T17:23:41;1.73;;;1.25;;
47603;SDS011;33326;51.116;6.900;2023-01-16T17:28:44;0.95;;;0.85;;
47603;SDS011;33326;51.116;6.900;2023-01-16T17:33:47;2.28;;;1.20;;
47603;SDS011;33326;51.116;6.900;2023-01-16T17:38:49;2.15;;;1.50;;
47603;SDS011;33326;51.116;6.900;2023-01-16T17:43:51;3.38;;;1.77;;
47603;SDS011;33326;51.116;6.900;2023-01-16T17:49:12;2.53;;;1.55;;
47603;SDS011;33326;51.116;6.900;2023-01-16T17:54:14;2.08;;;1.75;;
47603;SDS011;33326;51.116;6.900;2023-01-16T17:59:36;3.83;;;2.05;;
47603;SDS011;33326;51.116;6.900;2023-01-16T18:04:39;2.10;;;1.52;;
47603;SDS011;33326;51.116;6.900;2023-01-16T18:09:41;3.60;;;2.35;;
47603;SDS011;33326;51.116;6.900;2023-01-16T18:14:43;4.05;;;2.75;;
47603;SDS011;33326;51.116;6.900;2023-01-16T18:20:04;5.82;;;2.47;;
47603;SDS011;33326;51.116;6.900;2023-01-16T18:25:11;4.20;;;2.30;;
47603;SDS011;33326;51.116;6.900;2023-01-16T18:30:13;4.60;;;2.50;;
47603;SDS011;33326;51.116;6.900;2023-01-16T18:35:17;2.80;;;2.30;;
47603;SDS011;33326;51.116;6.900;2023-01-16T18:40:18;2.35;;;2.08;;
47603;SDS011;33326;51.116;6.900;2023-01-16T18:45:38;4.55;;;2.42;;
47603;SDS011;33326;51.116;6.900;2023-01-16T18:50:59;2.35;;;1.80;;
47603;SDS011;33326;51.116;6.900;2023-01-16T18:56:20;5.65;;;3.00;;
47603;SDS011;33326;51.116;6.900;2023-01-16T19:01:42;5.18;;;3.15;;
47603;SDS011;33326;51.116;6.900;2023-01-16T19:07:02;3.72;;;2.60;;
47603;SDS011;33326;51.116;6.900;2023-01-16T19:12:07;3.28;;;2.83;;
47603;SDS011;33326;51.116;6.900;2023-01-16T19:17:11;3.95;;;3.50;;
47603;SDS011;33326;51.116;6.900;2023-01-16T19:22:14;5.95;;;4.53;;
47603;SDS011;33326;51.116;6.900;2023-01-16T19:27:16;6.80;;;4.97;;
47603;SDS011;33326;51.116;6.900;2023-01-16T19:32:21;6.75;;;4.50;;
47603;SDS011;33326;51.116;6.900;2023-01-16T19:37:27;6.00;;;4.47;;
47603;SDS011;33326;51.116;6.900;2023-01-16T19:42:32;7.40;;;5.15;;
47603;SDS011;33326;51.116;6.900;2023-01-16T19:47:51;8.38;;;5.85;;
47603;SDS011;33326;51.116;6.900;2023-01-16T19:52:55;7.38;;;5.57;;
47603;SDS011;33326;51.116;6.900;2023-01-16T19:57:57;8.15;;;5.05;;
47603;SDS011;33326;51.116;6.900;2023-01-16T20:02:59;7.00;;;5.05;;
47603;SDS011;33326;51.116;6.900;2023-01-16T20:08:03;6.88;;;5.43;;
47603;SDS011;33326;51.116;6.900;2023-01-16T20:13:05;9.68;;;6.53;;
47603;SDS011;33326;51.116;6.900;2023-01-16T20:18:07;10.00;;;6.93;;
47603;SDS011;33326;51.116;6.900;2023-01-16T20:23:11;14.40;;;9.88;;
47603;SDS011;33326;51.116;6.900;2023-01-16T20:28:12;18.50;;;11.85;;
47603;SDS011;33326;51.116;6.900;2023-01-16T20:33:14;23.55;;;14.98;;
47603;SDS011;33326;51.116;6.900;2023-01-16T20:38:18;23.33;;;15.18;;
47603;SDS011;33326;51.116;6.900;2023-01-16T20:43:20;23.77;;;15.10;;
47603;SDS011;33326;51.116;6.900;2023-01-16T20:48:40;22.83;;;14.90;;
47603;SDS011;33326;51.116;6.900;2023-01-16T20:53:43;20.42;;;14.35;;
47603;SDS011;33326;51.116;6.900;2023-01-16T20:58:46;15.80;;;10.32;;
47603;SDS011;33326;51.116;6.900;2023-01-16T21:03:48;15.15;;;10.38;;
47603;SDS011;33326;51.116;6.900;2023-01-16T21:08:51;13.07;;;10.38;;
47603;SDS011;33326;51.116;6.900;2023-01-16T21:13:53;13.43;;;10.20;;
47603;SDS011;33326;51.116;6.900;2023-01-16T21:24:36;11.63;;;7.32;;
47603;SDS011;33326;51.116;6.900;2023-01-16T21:29:38;9.25;;;6.97;;
47603;SDS011;33326;51.116;6.900;2023-01-16T21:34:41;10.18;;;7.03;;
47603;SDS011;33326;51.116;6.900;2023-01-16T21:39:46;7.43;;;5.78;;
47603;SDS011;33326;51.116;6.900;2023-01-16T21:44:49;6.43;;;4.50;;
47603;SDS011;33326;51.116;6.900;2023-01-16T21:50:09;7.53;;;4.80;;
47603;SDS011;33326;51.116;6.900;2023-01-16T21:55:14;5.38;;;4.38;;
47603;SDS011;33326;51.116;6.900;2023-01-16T22:00:17;9.48;;;5.47;;
47603;SDS011;33326;51.116;6.900;2023-01-16T22:05:19;10.35;;;5.78;;
47603;SDS011;33326;51.116;6.900;2023-01-16T22:10:23;6.72;;;4.75;;
47603;SDS011;33326;51.116;6.900;2023-01-16T22:15:25;5.47;;;3.67;;
47603;SDS011;33326;51.116;6.900;2023-01-16T22:20:44;5.70;;;4.07;;
47603;SDS011;33326;51.116;6.900;2023-01-16T22:25:54;4.57;;;4.10;;
47603;SDS011;33326;51.116;6.900;2023-01-16T22:30:57;4.13;;;3.30;;
47603;SDS011;33326;51.116;6.900;2023-01-16T22:36:00;6.00;;;3.10;;
47603;SDS011;33326;51.116;6.900;2023-01-16T22:41:04;4.30;;;3.08;;
47603;SDS011;33326;51.116;6.900;2023-01-16T22:46:08;6.05;;;3.28;;
47603;SDS011;33326;51.116;6.900;2023-01-16T22:51:30;3.10;;;2.58;;
47603;SDS011;33326;51.116;6.900;2023-01-16T22:56:35;5.32;;;3.35;;
47603;SDS011;33326;51.116;6.900;2023-01-16T23:01:37;6.60;;;4.18;;
47603;SDS011;33326;51.116;6.900;2023-01-16T23:06:39;6.40;;;4.70;;
47603;SDS011;33326;51.116;6.900;2023-01-16T23:11:44;8.40;;;4.50;;
47603;SDS011;33326;51.116;6.900;2023-01-16T23:16:48;10.10;;;4.78;;
47603;SDS011;33326;51.116;6.900;2023-01-16T23:21:51;10.02;;;5.65;;
47603;SDS011;33326;51.116;6.900;2023-01-16T23:26:57;6.45;;;4.30;;
47603;SDS011;33326;51.116;6.900;2023-01-16T23:32:02;6.88;;;3.50;;
47603;SDS011;33326;51.116;6.900;2023-01-16T23:37:04;4.65;;;2.55;;
47603;SDS011;33326;51.116;6.900;2023-01-16T23:42:08;7.00;;;3.00;;
47603;SDS011;33326;51.116;6.900;2023-01-16T23:47:30;4.32;;;2.80;;
47603;SDS011;33326;51.116;6.900;2023-01-16T23:52:33;4.18;;;2.67;;
47603;SDS011;33326;51.116;6.900;2023-01-16T23:57:40;3.97;;;2.45;;
